Cairngorm, United Kingdom
Current Conditions -  °F | °C
As of 1:50 PM on Thursday 29 Jan 2015 (Local Time) from EGPE Reporting Station
Rain Showers Rain Showers  
Wind Chill: 28°   Ceiling: Unl
Heat Index: 36°   Visibility: 6mi
Dew Point: 32°   Wind: 10mph
Humidity: 87%   Direction: 250°WSW
Pressure: 28.7"   Gusts: NA
Location:  57.12°N, 3.64°W
Report Text: EGPE 291350Z 25009KT 9999 8000NW VCSH FEW008 FEW020CB 02/00 Q0972
Loading
Personal Weather Stations






























Interactive Weather Map New forecast layout! Learn more

10-Day Weather Forecast

Advertisements
Track Severe Weather on mobile